Upland, California
Current Conditions -  °F | °C
As of 4:53 PM on Monday 20 Oct 2014 (Local Time) from KONT Reporting Station
Scattered Clouds Scattered Clouds  
Wind Chill: 79°   Ceiling: Unl
Heat Index: 80°   Visibility: 10mi
Dew Point: 55°   Wind: 9mph
Humidity: 44%   Direction: 260°W
Pressure: 29.86"   Gusts: NA
Location:  34.1°N, 117.65°W
Report Text: KONT 202353Z 26008KT 10SM SCT250 26/13 A2986 RMK AO2 SLP100 T02610128 10272 20194 56010
Loading
Personal Weather Stations






























Interactive Weather Map
Tropical Storm Tracking
New forecast layout! Learn more

10-Day Weather Forecast

Advertisements
Track Severe Weather on mobile